createdAt,value
2022-11-30T00:00:07.226Z,100378.91
2022-11-30T00:02:58.332Z,100417.38
2022-11-30T00:05:26.562Z,100350.25
2022-11-30T00:07:54.780Z,100420.91
2022-11-30T00:10:23.946Z,100416.66
2022-11-30T00:12:52.041Z,100422.63
2022-11-30T00:15:20.580Z,100358.09
2022-11-30T00:17:49.909Z,100421.19
2022-11-30T00:20:18.237Z,100423.94
2022-11-30T00:22:46.212Z,100395.44
2022-11-30T00:25:14.095Z,100432.63
2022-11-30T00:27:42.324Z,100356.59
2022-11-30T00:30:10.890Z,100430.34
2022-11-30T00:32:39.197Z,100396.75
2022-11-30T00:35:07.709Z,100412.88
2022-11-30T00:37:36.013Z,100416.06
2022-11-30T00:40:05.878Z,100425.72
2022-11-30T00:42:33.890Z,100398.59
2022-11-30T00:45:01.826Z,100437.13
2022-11-30T00:47:29.759Z,100409.13
2022-11-30T00:49:58.049Z,100429.00
2022-11-30T00:52:25.906Z,100434.75
2022-11-30T00:54:53.881Z,100436.47
2022-11-30T00:57:22.128Z,100425.38
2022-11-30T00:59:49.974Z,100431.91
2022-11-30T01:02:18.002Z,100418.06
2022-11-30T01:04:46.856Z,100426.69
2022-11-30T01:07:14.810Z,100419.56
2022-11-30T01:09:42.721Z,100426.53
2022-11-30T01:12:10.954Z,100440.94
2022-11-30T01:14:38.990Z,100339.44
2022-11-30T01:17:06.830Z,100421.13
2022-11-30T01:19:34.910Z,100427.56
2022-11-30T01:22:02.912Z,100350.00
2022-11-30T01:24:30.774Z,100428.22
2022-11-30T01:26:58.885Z,100431.22
2022-11-30T01:29:26.669Z,100387.91
2022-11-30T01:31:54.524Z,100432.91
2022-11-30T01:34:22.657Z,100433.31
2022-11-30T01:36:50.529Z,100422.09
2022-11-30T01:39:18.461Z,100409.34
2022-11-30T01:41:46.700Z,100417.78
2022-11-30T01:44:19.719Z,100438.50
2022-11-30T01:47:06.658Z,100374.44
2022-11-30T01:49:41.462Z,100442.25
2022-11-30T01:52:37.080Z,100431.69
2022-11-30T01:55:42.528Z,100431.94
2022-11-30T01:58:21.255Z,100429.06
2022-11-30T02:00:49.219Z,100414.44
2022-11-30T02:03:24.049Z,100431.56
2022-11-30T02:05:52.173Z,100427.75
2022-11-30T02:08:20.707Z,100430.09
2022-11-30T02:10:59.018Z,100351.81
2022-11-30T02:13:52.780Z,100414.81
2022-11-30T02:16:48.643Z,100431.03
2022-11-30T02:19:44.396Z,100434.75
2022-11-30T02:22:57.065Z,100434.38
2022-11-30T02:25:52.595Z,100432.91
2022-11-30T02:29:01.040Z,100436.13
2022-11-30T02:32:08.359Z,100431.66
2022-11-30T02:34:41.060Z,100430.56
2022-11-30T02:37:11.761Z,100430.69
2022-11-30T02:39:39.637Z,100379.72
2022-11-30T02:42:14.947Z,100388.97
2022-11-30T02:44:49.256Z,100439.31
2022-11-30T02:47:42.682Z,100440.03
2022-11-30T02:50:22.385Z,100449.34
2022-11-30T02:52:51.981Z,100412.91
2022-11-30T02:55:20.864Z,100444.97
2022-11-30T02:57:48.635Z,100415.78
2022-11-30T03:00:17.405Z,100450.00
2022-11-30T03:02:45.481Z,100403.44
2022-11-30T03:05:13.647Z,100433.72
2022-11-30T03:07:41.915Z,100448.63
2022-11-30T03:10:10.505Z,100445.09
2022-11-30T03:12:38.442Z,100452.03
2022-11-30T03:15:07.449Z,100422.88
2022-11-30T03:17:35.404Z,100441.84
2022-11-30T03:20:04.620Z,100406.94
2022-11-30T03:22:32.848Z,100453.16
2022-11-30T03:25:00.744Z,100452.44
2022-11-30T03:27:28.667Z,100451.25
2022-11-30T03:29:57.257Z,100451.91
2022-11-30T03:32:25.159Z,100467.91
2022-11-30T03:34:53.130Z,100455.78
2022-11-30T03:37:21.198Z,100458.94
2022-11-30T03:39:51.405Z,100447.09
2022-11-30T03:42:24.056Z,100379.25
2022-11-30T03:44:51.986Z,100452.31
2022-11-30T03:47:19.851Z,100421.50
2022-11-30T03:49:48.090Z,100417.41
2022-11-30T03:52:16.043Z,100470.41
2022-11-30T03:54:44.010Z,100453.28
2022-11-30T03:57:12.667Z,100468.81
2022-11-30T03:59:40.555Z,100468.72
2022-11-30T04:02:08.413Z,100386.78
2022-11-30T04:04:36.747Z,100417.59
2022-11-30T04:07:04.570Z,100467.78
2022-11-30T04:09:32.397Z,100479.19
2022-11-30T04:12:00.639Z,100478.28
2022-11-30T04:14:28.625Z,100431.03
2022-11-30T04:16:57.023Z,100469.50
2022-11-30T04:19:25.206Z,100468.81
2022-11-30T04:21:53.128Z,100393.00
2022-11-30T04:24:21.065Z,100426.09
2022-11-30T04:26:49.260Z,100481.81
2022-11-30T04:29:17.299Z,100471.25
2022-11-30T04:31:45.299Z,100471.44
2022-11-30T04:34:13.322Z,100484.16
2022-11-30T04:36:41.190Z,100482.66
2022-11-30T04:39:09.071Z,100432.72
2022-11-30T04:41:37.711Z,100490.00
2022-11-30T04:44:05.637Z,100477.72
2022-11-30T04:46:33.613Z,100487.44
2022-11-30T04:49:02.004Z,100483.91
2022-11-30T04:51:29.885Z,100482.91
2022-11-30T04:53:57.819Z,100469.34
2022-11-30T04:56:25.961Z,100463.31
2022-11-30T04:58:53.916Z,100430.22
2022-11-30T05:01:21.854Z,100481.38
2022-11-30T05:03:50.026Z,100481.53
2022-11-30T05:06:17.908Z,100449.16
2022-11-30T05:08:46.272Z,100480.03
2022-11-30T05:11:14.443Z,100491.84
2022-11-30T05:13:42.410Z,100490.19
2022-11-30T05:16:10.810Z,100453.59
2022-11-30T05:18:39.327Z,100503.53
2022-11-30T05:21:07.242Z,100498.47
2022-11-30T05:23:36.397Z,100508.13
2022-11-30T05:26:05.046Z,100498.53
2022-11-30T05:28:33.043Z,100513.16
2022-11-30T05:31:07.597Z,100512.22
2022-11-30T05:33:35.610Z,100506.09
2022-11-30T05:36:10.184Z,100513.59
2022-11-30T05:38:38.930Z,100520.66
2022-11-30T05:41:06.999Z,100525.03
2022-11-30T05:43:34.946Z,100514.75
2022-11-30T05:46:05.128Z,100437.47
2022-11-30T05:48:33.350Z,100531.25
2022-11-30T05:51:13.696Z,100485.56
2022-11-30T05:53:47.735Z,100512.13
2022-11-30T05:56:21.852Z,100487.31
2022-11-30T05:58:49.799Z,100540.97
2022-11-30T06:01:24.576Z,100535.97
2022-11-30T06:03:53.338Z,100501.22
2022-11-30T06:06:21.713Z,100491.53
2022-11-30T06:08:50.609Z,100522.97
2022-11-30T06:11:18.636Z,100540.81
2022-11-30T06:13:46.559Z,100535.00
2022-11-30T06:16:14.746Z,100541.22
2022-11-30T06:18:42.742Z,100541.41
2022-11-30T06:21:11.877Z,100547.47
2022-11-30T06:23:40.162Z,100501.50
2022-11-30T06:26:11.994Z,100401.88
2022-11-30T06:28:43.130Z,100499.84
2022-11-30T06:31:15.103Z,100554.97
2022-11-30T06:33:43.488Z,100555.06
2022-11-30T06:36:11.528Z,100553.28
2022-11-30T06:38:39.679Z,100550.66
2022-11-30T06:41:09.964Z,100545.94
2022-11-30T06:43:39.263Z,100546.94
2022-11-30T06:46:08.373Z,100562.69
2022-11-30T06:48:36.692Z,100541.50
2022-11-30T06:51:10.513Z,100508.22
2022-11-30T06:53:38.760Z,100512.69
2022-11-30T06:56:10.442Z,100561.38
2022-11-30T06:58:42.525Z,100564.00
2022-11-30T07:01:15.224Z,100566.53
2022-11-30T07:03:43.870Z,100566.81
2022-11-30T07:06:14.199Z,100564.38
2022-11-30T07:08:43.290Z,100569.91
2022-11-30T07:11:12.896Z,100555.41
2022-11-30T07:13:40.804Z,100508.06
2022-11-30T07:16:11.562Z,100490.28
2022-11-30T07:18:40.379Z,100567.44
2022-11-30T07:21:10.148Z,100575.47
2022-11-30T07:23:57.272Z,100549.69
2022-11-30T07:26:26.228Z,100576.41
2022-11-30T07:28:58.547Z,100545.59
2022-11-30T07:31:36.585Z,100586.59
2022-11-30T07:34:08.364Z,100586.22
2022-11-30T07:36:38.015Z,100592.28
2022-11-30T07:39:06.106Z,100577.16
2022-11-30T07:41:34.659Z,100590.94
2022-11-30T07:44:06.037Z,100595.78
2022-11-30T07:46:36.358Z,100556.50
2022-11-30T07:49:07.019Z,100593.03
2022-11-30T07:51:35.469Z,100590.53
2022-11-30T07:54:04.046Z,100586.16
2022-11-30T07:56:32.036Z,100592.94
2022-11-30T07:59:02.328Z,100572.03
2022-11-30T08:01:33.461Z,100583.84
2022-11-30T08:04:01.743Z,100500.56
2022-11-30T08:06:31.668Z,100501.41
2022-11-30T08:09:03.355Z,100541.38
2022-11-30T08:11:34.144Z,100543.84
2022-11-30T08:14:03.718Z,100584.72
2022-11-30T08:16:38.254Z,100528.63
2022-11-30T08:19:06.705Z,100578.34
2022-11-30T08:21:34.613Z,100575.88
2022-11-30T08:24:02.884Z,100550.16
2022-11-30T08:26:33.826Z,100596.56
2022-11-30T08:29:02.348Z,100592.41
2022-11-30T08:31:36.502Z,100598.31
2022-11-30T08:34:13.604Z,100601.81
2022-11-30T08:36:42.902Z,100583.91
2022-11-30T08:39:13.467Z,100550.81
2022-11-30T08:41:41.285Z,100592.72
2022-11-30T08:44:09.701Z,100592.34
2022-11-30T08:46:54.064Z,100550.69
2022-11-30T08:55:00.496Z,100589.63
2022-11-30T08:57:28.486Z,100581.03
2022-11-30T08:59:56.871Z,100589.25
2022-11-30T09:02:25.073Z,100595.47
2022-11-30T09:04:53.695Z,100596.34
2022-11-30T09:07:21.582Z,100556.91
2022-11-30T09:09:49.744Z,100546.75
2022-11-30T09:12:17.665Z,100564.78
2022-11-30T09:14:46.792Z,100600.56
2022-11-30T09:17:16.958Z,100610.91
2022-11-30T09:19:44.936Z,100567.06
2022-11-30T09:22:12.780Z,100580.59
2022-11-30T09:24:41.877Z,100533.50
2022-11-30T09:27:09.988Z,100590.34
2022-11-30T09:29:37.816Z,100552.91
2022-11-30T09:32:06.995Z,100592.16
2022-11-30T09:34:34.914Z,100585.88
2022-11-30T09:37:02.789Z,100589.53
2022-11-30T09:39:31.054Z,100596.97
2022-11-30T09:42:23.632Z,100590.66
2022-11-30T09:45:14.589Z,100596.06
2022-11-30T09:48:22.939Z,100589.31
2022-11-30T09:50:52.585Z,100586.13
2022-11-30T09:53:36.713Z,100581.44
2022-11-30T09:56:23.057Z,100584.00
2022-11-30T09:59:05.987Z,100578.50
2022-11-30T10:01:37.456Z,100544.03
2022-11-30T10:04:06.698Z,100579.88
2022-11-30T10:06:43.460Z,100515.34
2022-11-30T10:10:31.786Z,100568.31
2022-11-30T10:13:21.171Z,100569.09
2022-11-30T10:16:04.357Z,100559.72
2022-11-30T10:19:25.301Z,100558.84
2022-11-30T10:22:37.324Z,100572.91
2022-11-30T10:25:20.495Z,100576.06
2022-11-30T10:28:45.722Z,100554.66
2022-11-30T10:31:14.379Z,100563.09
2022-11-30T10:33:54.465Z,100548.84
2022-11-30T10:36:44.451Z,100505.19
2022-11-30T10:39:50.123Z,100549.69
2022-11-30T10:42:27.292Z,100526.59
2022-11-30T10:45:12.385Z,100539.44
2022-11-30T10:48:14.076Z,100531.50
2022-11-30T10:50:42.738Z,100543.63
2022-11-30T10:53:13.081Z,100539.75
2022-11-30T10:55:50.356Z,100536.06
2022-11-30T10:58:59.113Z,100521.81
2022-11-30T11:01:35.276Z,100522.84
2022-11-30T11:04:25.521Z,100459.69
2022-11-30T11:07:18.069Z,100542.88
2022-11-30T11:09:50.666Z,100517.47
2022-11-30T11:12:25.902Z,100482.47
2022-11-30T11:15:31.116Z,100486.94
2022-11-30T11:18:23.962Z,100518.38
2022-11-30T11:21:16.657Z,100517.53
2022-11-30T11:23:46.246Z,100508.25
2022-11-30T11:26:22.870Z,100525.19
2022-11-30T11:28:54.283Z,100474.03
2022-11-30T11:31:46.618Z,100441.75
2022-11-30T11:34:37.202Z,100514.19
2022-11-30T11:37:37.823Z,100481.59
2022-11-30T11:40:08.845Z,100472.16
2022-11-30T11:42:51.491Z,100478.72
2022-11-30T11:45:38.008Z,100504.16
2022-11-30T11:48:29.198Z,100522.22
2022-11-30T11:51:10.141Z,100484.19
2022-11-30T11:53:47.403Z,100524.25
2022-11-30T11:56:23.701Z,100535.47
2022-11-30T11:59:09.743Z,100501.34
2022-11-30T12:01:59.525Z,100534.28
2022-11-30T12:04:52.962Z,100530.06
2022-11-30T12:08:03.100Z,100534.56
2022-11-30T12:10:51.820Z,100527.69
2022-11-30T12:13:33.336Z,100507.81
2022-11-30T12:16:11.945Z,100522.53
2022-11-30T12:19:05.615Z,100513.69
2022-11-30T12:21:54.843Z,100433.38
2022-11-30T12:25:06.305Z,100517.78
2022-11-30T12:28:10.013Z,100517.78
2022-11-30T12:30:53.531Z,100519.84
2022-11-30T12:33:25.309Z,100520.00
2022-11-30T12:36:11.458Z,100525.13
2022-11-30T12:38:50.281Z,100527.81
2022-11-30T12:41:31.950Z,100526.84
2022-11-30T12:44:45.536Z,100489.13
2022-11-30T12:47:22.110Z,100478.06
2022-11-30T12:50:43.614Z,100529.06
2022-11-30T12:53:27.231Z,100533.41
2022-11-30T12:56:14.157Z,100518.44
2022-11-30T12:59:00.324Z,100541.81
2022-11-30T13:02:14.109Z,100542.59
2022-11-30T13:05:02.160Z,100407.31
2022-11-30T13:07:38.444Z,100540.13
2022-11-30T13:10:12.637Z,100426.75
2022-11-30T13:12:47.890Z,100505.38
2022-11-30T13:15:31.542Z,100528.88
2022-11-30T13:18:01.875Z,100544.78
2022-11-30T13:20:48.779Z,100551.38
2022-11-30T13:23:39.245Z,100538.69
2022-11-30T13:26:44.689Z,100541.44
2022-11-30T13:29:59.098Z,100550.03
2022-11-30T13:32:56.863Z,100543.34
2022-11-30T13:35:30.648Z,100561.00
2022-11-30T13:38:38.529Z,100549.69
2022-11-30T13:41:09.231Z,100542.56
2022-11-30T13:43:50.078Z,100549.25
2022-11-30T13:46:24.055Z,100531.28
2022-11-30T13:49:30.327Z,100503.38
2022-11-30T13:52:21.362Z,100543.72
2022-11-30T13:54:54.678Z,100551.88
2022-11-30T13:57:28.750Z,100544.69
2022-11-30T14:00:02.864Z,100535.19
2022-11-30T14:02:42.557Z,100500.63
2022-11-30T14:05:17.359Z,100513.06
2022-11-30T14:07:52.204Z,100546.56
2022-11-30T14:10:31.516Z,100494.91
2022-11-30T14:13:09.532Z,100554.56
2022-11-30T14:15:41.159Z,100558.16
2022-11-30T14:18:09.211Z,100552.25
2022-11-30T14:20:51.311Z,100552.25
2022-11-30T14:23:39.478Z,100562.84
2022-11-30T14:26:27.906Z,100551.78
2022-11-30T14:29:08.332Z,100554.25
2022-11-30T14:31:48.954Z,100559.66
2022-11-30T14:34:46.066Z,100522.28
2022-11-30T14:37:27.299Z,100558.94
2022-11-30T14:39:56.840Z,100549.97
2022-11-30T14:42:29.507Z,100550.75
2022-11-30T14:44:58.406Z,100551.81
2022-11-30T14:47:36.557Z,100559.69
2022-11-30T14:50:06.694Z,100478.88
2022-11-30T14:53:21.825Z,100569.56
2022-11-30T14:56:30.418Z,100519.75
2022-11-30T14:59:32.694Z,100553.88
2022-11-30T15:02:13.036Z,100560.78
2022-11-30T15:04:41.252Z,100515.63
2022-11-30T15:07:15.578Z,100523.34
2022-11-30T15:09:49.351Z,100568.69
2022-11-30T15:12:22.474Z,100520.09
2022-11-30T15:15:30.091Z,100557.88
2022-11-30T15:18:27.687Z,100538.34
2022-11-30T15:21:08.654Z,100514.19
2022-11-30T15:23:37.658Z,100573.28
2022-11-30T15:26:27.825Z,100555.41
2022-11-30T15:29:07.513Z,100575.06
2022-11-30T15:31:41.997Z,100537.91
2022-11-30T15:34:28.361Z,100532.72
2022-11-30T15:36:58.766Z,100577.94
2022-11-30T15:39:29.947Z,100529.31
2022-11-30T15:42:01.581Z,100514.03
2022-11-30T15:44:45.418Z,100566.25
2022-11-30T15:47:32.380Z,100537.28
2022-11-30T15:50:00.748Z,100539.81
2022-11-30T15:52:31.481Z,100540.91
2022-11-30T15:55:03.709Z,100580.31
2022-11-30T15:58:01.866Z,100581.81
2022-11-30T16:00:30.471Z,100582.06
2022-11-30T16:03:09.430Z,100599.41
2022-11-30T16:05:39.892Z,100530.41
2022-11-30T16:08:17.138Z,100589.31
2022-11-30T16:10:45.543Z,100528.00
2022-11-30T16:13:16.174Z,100554.44
2022-11-30T16:15:47.460Z,100534.78
2022-11-30T16:18:26.935Z,100595.69
2022-11-30T16:20:59.496Z,100587.25
2022-11-30T16:23:28.765Z,100584.81
2022-11-30T16:25:57.378Z,100592.56
2022-11-30T16:28:25.527Z,100593.34
2022-11-30T16:30:59.714Z,100587.44
2022-11-30T16:33:28.416Z,100568.03
2022-11-30T16:36:01.596Z,100603.25
2022-11-30T16:38:29.663Z,100564.25
2022-11-30T16:41:13.252Z,100609.28
2022-11-30T16:43:42.283Z,100544.63
2022-11-30T16:46:13.458Z,100612.56
2022-11-30T16:48:42.208Z,100609.75
2022-11-30T16:51:28.761Z,100592.97
2022-11-30T16:53:57.370Z,100575.13
2022-11-30T16:56:25.663Z,100612.56
2022-11-30T16:58:54.408Z,100572.63
2022-11-30T17:01:43.850Z,100602.50
2022-11-30T17:04:20.617Z,100619.53
2022-11-30T17:06:50.860Z,100576.78
2022-11-30T17:09:21.841Z,100612.56
2022-11-30T17:11:51.681Z,100605.03
2022-11-30T17:14:22.242Z,100617.78
2022-11-30T17:16:50.466Z,100614.97
2022-11-30T17:19:18.948Z,100619.88
2022-11-30T17:21:48.432Z,100617.97
2022-11-30T17:24:16.880Z,100594.06
2022-11-30T17:26:44.823Z,100582.09
2022-11-30T17:29:12.824Z,100627.91
2022-11-30T17:31:40.916Z,100633.16
2022-11-30T17:34:09.122Z,100623.59
2022-11-30T17:36:57.062Z,100628.41
2022-11-30T17:39:25.030Z,100587.91
2022-11-30T17:41:53.147Z,100520.00
2022-11-30T17:44:21.214Z,100633.03
2022-11-30T17:46:49.198Z,100604.91
2022-11-30T17:49:17.472Z,100636.44
2022-11-30T17:51:45.612Z,100588.56
2022-11-30T17:54:14.194Z,100631.34
2022-11-30T17:56:43.729Z,100634.09
2022-11-30T17:59:11.837Z,100601.78
2022-11-30T18:01:40.622Z,100637.63
2022-11-30T18:04:11.686Z,100559.84
2022-11-30T18:06:40.955Z,100631.41
2022-11-30T18:09:09.148Z,100589.75
2022-11-30T18:11:37.246Z,100634.81
2022-11-30T18:14:05.547Z,100631.72
2022-11-30T18:16:37.418Z,100650.69
2022-11-30T18:19:12.807Z,100644.53
2022-11-30T18:21:44.325Z,100643.16
2022-11-30T18:24:12.628Z,100597.06
2022-11-30T18:26:41.128Z,100597.16
2022-11-30T18:29:10.983Z,100640.69
2022-11-30T18:31:38.983Z,100640.00
2022-11-30T18:34:08.694Z,100645.94
2022-11-30T18:36:36.668Z,100627.16
2022-11-30T18:39:05.537Z,100641.44
2022-11-30T18:41:33.618Z,100648.75
2022-11-30T18:44:04.972Z,100648.88
2022-11-30T18:46:33.167Z,100643.31
2022-11-30T18:49:02.418Z,100642.84
2022-11-30T18:51:31.448Z,100660.63
2022-11-30T18:54:10.106Z,100652.63
2022-11-30T18:56:39.356Z,100650.72
2022-11-30T18:59:15.754Z,100665.88
2022-11-30T19:01:43.773Z,100665.22
2022-11-30T19:04:12.143Z,100666.94
2022-11-30T19:06:42.453Z,100660.91
2022-11-30T19:09:14.390Z,100660.25
2022-11-30T19:11:43.650Z,100621.72
2022-11-30T19:14:17.013Z,100668.97
2022-11-30T19:16:46.794Z,100613.41
2022-11-30T19:19:15.384Z,100665.38
2022-11-30T19:21:47.385Z,100629.06
2022-11-30T19:24:16.850Z,100680.53
2022-11-30T19:26:44.975Z,100669.09
2022-11-30T19:29:13.116Z,100649.34
2022-11-30T19:31:41.167Z,100600.81
2022-11-30T19:34:13.020Z,100666.25
2022-11-30T19:36:41.869Z,100656.97
2022-11-30T19:39:10.940Z,100651.09
2022-11-30T19:41:38.946Z,100674.13
2022-11-30T19:44:06.862Z,100643.56
2022-11-30T19:46:35.285Z,100665.69
2022-11-30T19:49:03.683Z,100635.16
2022-11-30T19:51:32.276Z,100656.56
2022-11-30T19:54:02.159Z,100650.78
2022-11-30T19:56:34.284Z,100696.88
2022-11-30T19:59:05.655Z,100686.63
2022-11-30T20:01:35.009Z,100649.94
2022-11-30T20:04:05.108Z,100642.31
2022-11-30T20:06:37.202Z,100696.34
2022-11-30T20:09:07.867Z,100696.28
2022-11-30T20:11:35.953Z,100654.31
2022-11-30T20:14:04.443Z,100703.03
2022-11-30T20:16:33.889Z,100706.59
2022-11-30T20:19:02.754Z,100703.97
2022-11-30T20:21:35.266Z,100694.03
2022-11-30T20:24:07.821Z,100693.75
2022-11-30T20:26:40.000Z,100698.06
2022-11-30T20:29:13.068Z,100699.75
2022-11-30T20:31:42.530Z,100657.28
2022-11-30T20:34:10.511Z,100685.38
2022-11-30T20:36:39.441Z,100646.81
2022-11-30T20:39:08.141Z,100693.25
2022-11-30T20:41:36.141Z,100697.13
2022-11-30T20:44:04.696Z,100707.25
2022-11-30T20:46:35.795Z,100704.81
2022-11-30T20:49:13.988Z,100629.69
2022-11-30T20:51:42.320Z,100702.25
2022-11-30T20:54:12.692Z,100705.00
2022-11-30T20:56:41.617Z,100708.56
2022-11-30T20:59:16.937Z,100712.84
2022-11-30T21:01:49.293Z,100674.16
2022-11-30T21:04:17.349Z,100666.28
2022-11-30T21:06:48.310Z,100706.06
2022-11-30T21:09:18.509Z,100703.16
2022-11-30T21:11:48.787Z,100696.28
2022-11-30T21:14:17.927Z,100658.78
2022-11-30T21:16:46.242Z,100672.03
2022-11-30T21:19:15.128Z,100665.31
2022-11-30T21:21:43.153Z,100665.19
2022-11-30T21:24:12.076Z,100703.59
2022-11-30T21:26:42.906Z,100687.41
2022-11-30T21:29:15.381Z,100667.81
2022-11-30T21:31:45.863Z,100704.59
2022-11-30T21:34:14.490Z,100707.75
2022-11-30T21:36:43.022Z,100689.22
2022-11-30T21:39:16.994Z,100696.53
2022-11-30T21:41:45.349Z,100666.91
2022-11-30T21:44:15.555Z,100658.03
2022-11-30T21:46:46.723Z,100707.38
2022-11-30T21:49:15.971Z,100700.16
2022-11-30T21:51:44.454Z,100712.22
2022-11-30T21:54:14.350Z,100706.06
2022-11-30T21:56:43.834Z,100707.03
2022-11-30T21:59:15.416Z,100704.47
2022-11-30T22:01:44.729Z,100702.63
2022-11-30T22:04:14.393Z,100706.16
2022-11-30T22:06:43.593Z,100666.78
2022-11-30T22:09:15.709Z,100661.53
2022-11-30T22:11:45.668Z,100706.84
2022-11-30T22:14:16.987Z,100666.78
2022-11-30T22:16:45.876Z,100700.91
2022-11-30T22:19:16.269Z,100707.38
2022-11-30T22:21:49.811Z,100704.34
2022-11-30T22:24:18.350Z,100647.81
2022-11-30T22:26:49.335Z,100701.91
2022-11-30T22:29:21.370Z,100704.47
2022-11-30T22:31:52.847Z,100697.38
2022-11-30T22:34:21.864Z,100682.03
2022-11-30T22:36:49.835Z,100669.69
2022-11-30T22:39:21.043Z,100689.31
2022-11-30T22:41:55.671Z,100690.56
2022-11-30T22:44:25.805Z,100654.59
2022-11-30T22:46:54.210Z,100646.31
2022-11-30T22:49:22.399Z,100683.47
2022-11-30T22:51:51.055Z,100647.03
2022-11-30T22:54:19.665Z,100648.63
2022-11-30T22:56:47.606Z,100688.47
2022-11-30T22:59:16.319Z,100685.78
2022-11-30T23:01:47.930Z,100661.28
2022-11-30T23:04:19.741Z,100684.25
2022-11-30T23:06:49.839Z,100689.66
2022-11-30T23:09:21.925Z,100654.16
2022-11-30T23:11:51.718Z,100686.22
2022-11-30T23:14:19.939Z,100689.59
2022-11-30T23:16:48.159Z,100650.50
2022-11-30T23:19:16.898Z,100687.13
2022-11-30T23:21:45.584Z,100688.19
2022-11-30T23:24:17.750Z,100697.91
2022-11-30T23:26:46.188Z,100685.44
2022-11-30T23:29:16.696Z,100690.16
2022-11-30T23:31:46.548Z,100689.25
2022-11-30T23:34:21.615Z,100693.91
2022-11-30T23:36:50.909Z,100684.66
2022-11-30T23:39:20.725Z,100594.41
2022-11-30T23:41:49.096Z,100638.72
2022-11-30T23:44:17.457Z,100681.06
2022-11-30T23:46:45.517Z,100677.22
2022-11-30T23:49:14.378Z,100638.00
2022-11-30T23:51:42.875Z,100604.97
2022-11-30T23:54:11.094Z,100659.91
2022-11-30T23:56:39.043Z,100679.53
2022-11-30T23:59:06.949Z,100681.22
